Calling Lake, Canada
Current Conditions -  °F | °C
As of 1:00 PM on Friday 24 Oct 2014 (Local Time) from CYZH Reporting Station
Broken Clouds Broken Clouds  
Wind Chill: 35°   Ceiling: 6000
Heat Index: 45°   Visibility: 9mi
Dew Point: 32°   Wind: 26mph
Humidity: 61%   Direction: 290°WNW
Pressure: 29.79"   Gusts: 33mph
Location:  55.25°N, 113.2°W
Report Text: CYZH 241900Z AUTO 29023G29KT 9SM BKN060 07/00 A2979 RMK SLP106
Loading
Personal Weather Stations






























Interactive Weather Map
Tropical Storm Tracking
New forecast layout! Learn more

10-Day Weather Forecast

Advertisements
Track Severe Weather on mobile